Terminal Aerodrome Forecast
Issued by NWS

Home | Current Version | Previous Version | Text Only | Print | Product List | Glossary On
Versions: 1 2 3 4 5 6 7 8 9 10 11 12 13 14 15
000
FTUS43 KMPX 110543
TAFRNH
TAF
KRNH 110543Z 1106/1206 10005KT 1 1/2SM -SN BKN008 OVC015
     FM111100 08008KT 3/4SM -SN OVC007
     FM111500 08008KT 2SM -SN SCT007 OVC015
     FM112200 36005KT P6SM BKN015 OVC025
     FM120200 29006KT P6SM OVC020=

USA.gov is the U.S. government's official web portal to all federal, state and local government web resources and services.